createdAt,value
2022-10-24T00:01:39.598Z,96734.75
2022-10-24T00:04:41.652Z,96740.88
2022-10-24T00:07:44.075Z,96740.28
2022-10-24T00:10:47.627Z,96740.66
2022-10-24T00:13:51.073Z,96738.84
2022-10-24T00:16:53.181Z,96736.41
2022-10-24T00:19:55.189Z,96746.72
2022-10-24T00:22:57.261Z,96732.28
2022-10-24T00:26:01.993Z,96732.91
2022-10-24T00:29:04.522Z,96732.44
2022-10-24T00:32:06.578Z,96732.75
2022-10-24T00:35:10.173Z,96733.59
2022-10-24T00:38:12.229Z,96722.19
2022-10-24T00:41:37.427Z,96724.84
2022-10-24T00:44:40.659Z,96728.50
2022-10-24T00:47:42.951Z,96735.16
2022-10-24T00:50:46.166Z,96748.31
2022-10-24T00:53:50.824Z,96756.97
2022-10-24T00:57:28.046Z,96758.81
2022-10-24T01:00:32.602Z,96769.25
2022-10-24T01:03:34.778Z,96761.75
2022-10-24T01:07:01.499Z,96761.34
2022-10-24T01:10:26.760Z,96757.44
2022-10-24T01:14:05.709Z,96753.63
2022-10-24T01:17:33.262Z,96754.59
2022-10-24T01:20:59.209Z,96747.00
2022-10-24T01:24:14.179Z,96738.72
2022-10-24T01:27:46.736Z,96737.03
2022-10-24T01:31:18.057Z,96741.50
2022-10-24T01:35:42.647Z,96740.63
2022-10-24T01:38:53.323Z,96743.38
2022-10-24T01:41:55.906Z,96737.06
2022-10-24T01:44:58.031Z,96730.75
2022-10-24T01:48:02.073Z,96726.44
2022-10-24T01:51:04.386Z,96725.88
2022-10-24T01:54:06.473Z,96731.25
2022-10-24T01:57:08.644Z,96726.47
2022-10-24T02:00:17.655Z,96720.88
2022-10-24T02:03:41.249Z,96715.13
2022-10-24T02:06:43.328Z,96708.31
2022-10-24T02:09:45.661Z,96702.97
2022-10-24T02:12:53.077Z,96691.84
2022-10-24T02:15:57.511Z,96698.22
2022-10-24T02:18:59.577Z,96690.34
2022-10-24T02:22:26.147Z,96683.59
2022-10-24T02:25:35.030Z,96683.28
2022-10-24T02:28:42.386Z,96674.75
2022-10-24T02:31:50.390Z,96670.63
2022-10-24T02:34:52.514Z,96671.06
2022-10-24T02:38:01.491Z,96668.81
2022-10-24T02:41:06.310Z,96663.38
2022-10-24T02:44:08.415Z,96653.44
2022-10-24T02:47:11.542Z,96650.28
2022-10-24T02:50:13.606Z,96652.72
2022-10-24T02:53:16.236Z,96649.59
2022-10-24T02:56:18.289Z,96648.41
2022-10-24T02:59:20.301Z,96649.53
2022-10-24T03:02:23.148Z,96645.66
2022-10-24T03:05:25.329Z,96642.94
2022-10-24T03:08:27.424Z,96637.78
2022-10-24T03:11:29.466Z,96644.91
2022-10-24T03:14:31.497Z,96640.44
2022-10-24T03:17:33.523Z,96643.16
2022-10-24T03:20:35.672Z,96640.66
2022-10-24T03:23:37.714Z,96634.19
2022-10-24T03:26:39.757Z,96635.88
2022-10-24T03:29:41.834Z,96642.56
2022-10-24T03:32:44.325Z,96639.66
2022-10-24T03:35:46.573Z,96631.00
2022-10-24T03:38:48.622Z,96629.47
2022-10-24T03:41:50.693Z,96635.19
2022-10-24T03:44:52.737Z,96639.28
2022-10-24T03:47:54.799Z,96643.44
2022-10-24T03:50:56.838Z,96639.84
2022-10-24T03:53:58.871Z,96647.91
2022-10-24T03:57:00.931Z,96630.75
2022-10-24T04:00:03.691Z,96643.75
2022-10-24T04:03:09.772Z,96647.66
2022-10-24T04:06:12.570Z,96644.19
2022-10-24T04:09:14.636Z,96649.22
2022-10-24T04:12:16.689Z,96648.03
2022-10-24T04:15:18.813Z,96649.22
2022-10-24T04:18:20.830Z,96653.28
2022-10-24T04:21:22.882Z,96656.31
2022-10-24T04:24:24.936Z,96653.00
2022-10-24T04:27:27.013Z,96658.69
2022-10-24T04:30:29.902Z,96652.72
2022-10-24T04:33:32.138Z,96672.78
2022-10-24T04:36:34.680Z,96675.34
2022-10-24T04:39:36.816Z,96669.41
2022-10-24T04:42:38.886Z,96676.06
2022-10-24T04:45:40.967Z,96681.59
2022-10-24T04:48:43.001Z,96681.66
2022-10-24T04:51:45.009Z,96685.72
2022-10-24T04:54:47.098Z,96683.59
2022-10-24T04:57:49.155Z,96702.31
2022-10-24T05:00:51.252Z,96704.31
2022-10-24T05:03:53.375Z,96706.25
2022-10-24T05:06:55.461Z,96719.69
2022-10-24T05:09:57.508Z,96726.72
2022-10-24T05:12:59.903Z,96731.75
2022-10-24T05:16:02.288Z,96734.19
2022-10-24T05:19:04.385Z,96746.59
2022-10-24T05:22:08.656Z,96751.25
2022-10-24T05:25:12.995Z,96744.69
2022-10-24T05:28:15.049Z,96746.22
2022-10-24T05:31:17.241Z,96750.81
2022-10-24T05:34:19.362Z,96756.13
2022-10-24T05:37:21.974Z,96760.75
2022-10-24T05:40:24.041Z,96761.72
2022-10-24T05:43:26.122Z,96763.94
2022-10-24T05:46:28.215Z,96761.63
2022-10-24T05:49:30.264Z,96756.63
2022-10-24T05:52:32.338Z,96757.13
2022-10-24T05:55:35.287Z,96780.25
2022-10-24T05:58:37.306Z,96769.38
2022-10-24T06:01:40.131Z,96780.84
2022-10-24T06:04:42.533Z,96778.09
2022-10-24T06:07:45.028Z,96775.66
2022-10-24T06:10:48.957Z,96783.31
2022-10-24T06:13:50.977Z,96769.59
2022-10-24T06:16:53.043Z,96776.31
2022-10-24T06:19:55.076Z,96785.69
2022-10-24T06:22:57.103Z,96775.31
2022-10-24T06:25:59.265Z,96775.38
2022-10-24T06:29:01.318Z,96785.69
2022-10-24T06:32:03.573Z,96781.97
2022-10-24T06:35:06.750Z,96783.56
2022-10-24T06:38:08.778Z,96794.63
2022-10-24T06:41:11.935Z,96797.06
2022-10-24T06:44:14.113Z,96797.19
2022-10-24T06:47:16.152Z,96797.25
2022-10-24T06:50:18.349Z,96799.34
2022-10-24T06:56:23.334Z,96808.81
2022-10-24T06:59:25.614Z,96812.22
2022-10-24T07:02:27.761Z,96812.47
2022-10-24T07:05:29.943Z,96820.75
2022-10-24T07:08:31.994Z,96825.44
2022-10-24T07:11:34.490Z,96831.50
2022-10-24T07:14:36.609Z,96832.31
2022-10-24T07:17:41.117Z,96829.94
2022-10-24T07:20:43.161Z,96842.63
2022-10-24T07:23:45.234Z,96837.72
2022-10-24T07:26:52.294Z,96841.78
2022-10-24T07:29:54.341Z,96839.44
2022-10-24T07:32:56.363Z,96843.31
2022-10-24T07:35:58.420Z,96858.28
2022-10-24T07:39:00.753Z,96849.19
2022-10-24T07:42:02.902Z,96858.56
2022-10-24T07:45:05.541Z,96859.81
2022-10-24T07:48:07.679Z,96859.66
2022-10-24T07:51:11.897Z,96868.34
2022-10-24T07:54:14.015Z,96867.78
2022-10-24T07:57:16.906Z,96881.94
2022-10-24T08:00:19.213Z,96883.13
2022-10-24T08:03:21.636Z,96878.31
2022-10-24T08:06:28.626Z,96877.91
2022-10-24T08:09:30.659Z,96884.75
2022-10-24T08:12:32.707Z,96889.28
2022-10-24T08:15:34.767Z,96890.25
2022-10-24T08:18:39.620Z,96895.75
2022-10-24T08:21:41.917Z,96902.47
2022-10-24T08:24:44.647Z,96900.94
2022-10-24T08:27:46.867Z,96898.41
2022-10-24T08:31:02.507Z,96891.72
2022-10-24T08:34:06.151Z,96892.56
2022-10-24T08:37:08.207Z,96897.41
2022-10-24T08:40:16.397Z,96913.63
2022-10-24T08:43:18.762Z,96909.38
2022-10-24T08:46:53.514Z,96927.13
2022-10-24T08:50:04.527Z,96924.97
2022-10-24T08:53:11.233Z,96936.31
2022-10-24T08:56:13.307Z,96936.78
2022-10-24T08:59:15.359Z,96942.59
2022-10-24T09:02:28.111Z,96942.44
2022-10-24T09:05:37.745Z,96947.06
2022-10-24T09:08:58.615Z,96944.03
2022-10-24T09:12:10.959Z,96953.09
2022-10-24T09:15:26.425Z,96956.16
2022-10-24T09:18:39.094Z,96953.16
2022-10-24T09:21:41.659Z,96960.59
2022-10-24T09:25:08.514Z,96951.53
2022-10-24T09:28:10.623Z,96954.28
2022-10-24T09:31:19.062Z,96960.31
2022-10-24T09:34:21.723Z,96974.63
2022-10-24T09:37:34.290Z,96981.44
2022-10-24T09:40:41.400Z,96986.16
2022-10-24T09:43:53.387Z,96980.75
2022-10-24T09:46:55.628Z,96982.22
2022-10-24T09:49:57.735Z,96987.47
2022-10-24T09:53:00.018Z,96989.09
2022-10-24T09:56:09.711Z,96997.22
2022-10-24T09:59:34.393Z,97004.00
2022-10-24T10:02:37.694Z,96998.34
2022-10-24T10:05:50.605Z,97001.28
2022-10-24T10:08:55.623Z,96998.19
2022-10-24T10:12:05.525Z,97003.91
2022-10-24T10:15:46.074Z,97014.47
2022-10-24T10:18:48.625Z,97010.81
2022-10-24T10:22:05.571Z,97024.03
2022-10-24T10:25:31.303Z,97013.38
2022-10-24T10:28:43.043Z,97021.69
2022-10-24T10:31:48.080Z,97021.75
2022-10-24T10:35:04.530Z,97015.13
2022-10-24T10:38:36.293Z,97028.06
2022-10-24T10:41:49.686Z,97037.84
2022-10-24T10:45:41.907Z,97023.81
2022-10-24T10:49:28.685Z,97035.75
2022-10-24T10:52:32.655Z,97034.91
2022-10-24T10:55:45.955Z,97035.75
2022-10-24T10:59:13.695Z,97027.25
2022-10-24T11:02:27.157Z,97027.84
2022-10-24T11:06:05.755Z,97037.84
2022-10-24T11:09:29.025Z,97036.44
2022-10-24T11:12:44.430Z,97046.22
2022-10-24T11:15:49.090Z,97054.00
2022-10-24T11:18:52.784Z,97048.75
2022-10-24T11:21:57.342Z,97056.28
2022-10-24T11:25:22.271Z,97055.13
2022-10-24T11:28:49.563Z,97077.59
2022-10-24T11:31:58.119Z,97064.38
2022-10-24T11:35:26.642Z,97067.22
2022-10-24T11:38:28.701Z,97074.75
2022-10-24T11:41:54.167Z,97080.88
2022-10-24T11:45:13.039Z,97072.66
2022-10-24T11:48:28.424Z,97066.00
2022-10-24T11:51:44.005Z,97097.31
2022-10-24T11:55:16.390Z,97085.75
2022-10-24T11:58:20.841Z,97102.53
2022-10-24T12:01:57.129Z,97081.28
2022-10-24T12:05:25.673Z,97082.97
2022-10-24T12:08:40.335Z,97079.50
2022-10-24T12:12:26.586Z,97088.38
2022-10-24T12:15:46.022Z,97083.97
2022-10-24T12:18:49.973Z,97086.06
2022-10-24T12:21:57.876Z,97086.31
2022-10-24T12:25:35.671Z,97082.53
2022-10-24T12:28:38.554Z,97115.53
2022-10-24T12:31:40.699Z,97094.31
2022-10-24T12:34:49.254Z,97092.06
2022-10-24T12:37:51.537Z,97114.41
2022-10-24T12:41:21.954Z,97092.16
2022-10-24T12:44:31.409Z,97109.56
2022-10-24T12:47:40.273Z,97094.59
2022-10-24T12:50:42.305Z,97102.81
2022-10-24T12:54:11.884Z,97104.63
2022-10-24T12:57:14.083Z,97096.28
2022-10-24T13:00:30.627Z,97098.88
2022-10-24T13:04:09.811Z,97118.81
2022-10-24T13:07:48.563Z,97118.81
2022-10-24T13:11:47.583Z,97109.53
2022-10-24T13:15:26.758Z,97126.88
2022-10-24T13:18:52.984Z,97113.44
2022-10-24T13:21:59.575Z,97114.88
2022-10-24T13:25:34.679Z,97133.25
2022-10-24T13:28:43.369Z,97114.44
2022-10-24T13:31:46.309Z,97132.53
2022-10-24T13:34:53.983Z,97132.41
2022-10-24T13:38:00.635Z,97129.25
2022-10-24T13:41:04.482Z,97126.31
2022-10-24T13:44:12.589Z,97127.19
2022-10-24T13:47:41.996Z,97125.31
2022-10-24T13:51:20.941Z,97126.94
2022-10-24T13:54:30.185Z,97139.13
2022-10-24T13:57:35.975Z,97136.50
2022-10-24T14:00:40.946Z,97135.50
2022-10-24T14:03:43.787Z,97133.19
2022-10-24T14:06:45.887Z,97133.72
2022-10-24T14:10:09.884Z,97137.56
2022-10-24T14:13:16.029Z,97144.19
2022-10-24T14:16:18.139Z,97150.31
2022-10-24T14:19:29.746Z,97149.88
2022-10-24T14:22:39.944Z,97140.50
2022-10-24T14:25:42.014Z,97166.75
2022-10-24T14:28:50.902Z,97163.25
2022-10-24T14:32:13.894Z,97153.03
2022-10-24T14:35:16.251Z,97167.53
2022-10-24T14:38:18.451Z,97171.34
2022-10-24T14:41:29.936Z,97165.31
2022-10-24T14:44:33.922Z,97175.56
2022-10-24T14:47:39.122Z,97164.94
2022-10-24T14:50:44.821Z,97173.41
2022-10-24T14:53:48.643Z,97168.28
2022-10-24T14:56:53.673Z,97174.69
2022-10-24T14:59:56.576Z,97179.13
2022-10-24T15:02:58.917Z,97173.19
2022-10-24T15:06:10.078Z,97183.13
2022-10-24T15:09:12.016Z,97167.13
2022-10-24T15:12:14.167Z,97169.50
2022-10-24T15:15:34.443Z,97170.88
2022-10-24T15:18:43.073Z,97167.28
2022-10-24T15:21:47.147Z,97181.41
2022-10-24T15:24:52.501Z,97182.38
2022-10-24T15:27:59.325Z,97184.03
2022-10-24T15:31:01.466Z,97182.22
2022-10-24T15:34:04.551Z,97198.13
2022-10-24T15:37:07.743Z,97205.31
2022-10-24T15:40:20.985Z,97186.56
2022-10-24T15:43:23.021Z,97198.06
2022-10-24T15:46:26.269Z,97200.50
2022-10-24T15:49:29.032Z,97204.97
2022-10-24T15:52:31.111Z,97208.66
2022-10-24T15:55:33.173Z,97214.59
2022-10-24T15:58:35.233Z,97215.41
2022-10-24T16:01:42.698Z,97217.38
2022-10-24T16:04:44.854Z,97218.56
2022-10-24T16:07:47.248Z,97229.25
2022-10-24T16:10:50.579Z,97231.09
2022-10-24T16:13:52.752Z,97232.22
2022-10-24T16:16:57.767Z,97237.03
2022-10-24T16:19:59.833Z,97242.56
2022-10-24T16:23:01.951Z,97243.53
2022-10-24T16:26:03.976Z,97250.69
2022-10-24T16:29:06.108Z,97249.38
2022-10-24T16:32:08.274Z,97254.53
2022-10-24T16:35:12.242Z,97269.63
2022-10-24T16:38:14.364Z,97273.22
2022-10-24T16:41:17.554Z,97274.78
2022-10-24T16:44:19.591Z,97284.06
2022-10-24T16:47:21.635Z,97283.09
2022-10-24T16:50:27.044Z,97288.28
2022-10-24T16:53:29.066Z,97293.06
2022-10-24T16:56:31.187Z,97298.41
2022-10-24T16:59:33.214Z,97301.88
2022-10-24T17:02:35.313Z,97313.50
2022-10-24T17:05:37.436Z,97307.47
2022-10-24T17:08:39.523Z,97313.88
2022-10-24T17:11:46.060Z,97315.28
2022-10-24T17:14:48.710Z,97324.78
2022-10-24T17:17:50.855Z,97328.47
2022-10-24T17:20:58.929Z,97331.31
2022-10-24T17:24:01.181Z,97341.31
2022-10-24T17:27:03.298Z,97333.88
2022-10-24T17:30:07.359Z,97342.41
2022-10-24T17:33:13.324Z,97343.50
2022-10-24T17:36:36.591Z,97351.72
2022-10-24T17:40:02.323Z,97357.97
2022-10-24T17:43:06.364Z,97358.16
2022-10-24T17:46:13.882Z,97368.06
2022-10-24T17:49:20.817Z,97368.94
2022-10-24T17:52:24.178Z,97370.00
2022-10-24T17:55:45.075Z,97370.41
2022-10-24T17:58:50.642Z,97372.56
2022-10-24T18:01:52.853Z,97394.84
2022-10-24T18:04:55.045Z,97390.34
2022-10-24T18:07:58.086Z,97396.13
2022-10-24T18:11:04.178Z,97400.97
2022-10-24T18:14:06.274Z,97399.03
2022-10-24T18:17:08.290Z,97408.13
2022-10-24T18:20:10.907Z,97411.47
2022-10-24T18:23:12.946Z,97410.72
2022-10-24T18:26:20.519Z,97410.72
2022-10-24T18:29:22.448Z,97419.47
2022-10-24T18:32:24.530Z,97416.88
2022-10-24T18:35:28.758Z,97431.75
2022-10-24T18:38:34.931Z,97437.09
2022-10-24T18:41:52.939Z,97429.13
2022-10-24T18:44:55.453Z,97432.34
2022-10-24T18:47:57.866Z,97440.59
2022-10-24T18:51:00.007Z,97437.69
2022-10-24T18:54:07.063Z,97430.25
2022-10-24T18:57:27.687Z,97429.72
2022-10-24T19:00:38.160Z,97437.94
2022-10-24T19:03:41.314Z,97443.75
2022-10-24T19:06:43.402Z,97439.50
2022-10-24T19:09:45.682Z,97454.41
2022-10-24T19:12:48.228Z,97458.63
2022-10-24T19:15:56.912Z,97456.78
2022-10-24T19:18:58.965Z,97453.03
2022-10-24T19:22:01.575Z,97452.53
2022-10-24T19:25:08.710Z,97449.88
2022-10-24T19:28:17.481Z,97454.66
2022-10-24T19:31:19.511Z,97455.97
2022-10-24T19:34:21.597Z,97447.75
2022-10-24T19:37:23.861Z,97454.91
2022-10-24T19:40:26.085Z,97452.00
2022-10-24T19:43:32.076Z,97445.38
2022-10-24T19:46:34.142Z,97445.34
2022-10-24T19:49:36.167Z,97433.44
2022-10-24T19:52:38.727Z,97440.06
2022-10-24T19:55:40.835Z,97432.38
2022-10-24T19:58:43.213Z,97426.22
2022-10-24T20:01:45.446Z,97430.69
2022-10-24T20:04:49.205Z,97441.00
2022-10-24T20:07:51.413Z,97447.03
2022-10-24T20:10:53.807Z,97447.09
2022-10-24T20:13:55.849Z,97447.88
2022-10-24T20:16:57.923Z,97454.47
2022-10-24T20:19:59.956Z,97457.69
2022-10-24T20:23:02.075Z,97464.63
2022-10-24T20:26:07.407Z,97453.19
2022-10-24T20:29:09.481Z,97459.56
2022-10-24T20:32:11.525Z,97470.19
2022-10-24T20:35:13.647Z,97470.44
2022-10-24T20:38:15.739Z,97470.63
2022-10-24T20:41:17.859Z,97490.50
2022-10-24T20:44:19.926Z,97481.75
2022-10-24T20:47:22.006Z,97478.09
2022-10-24T20:50:24.042Z,97489.47
2022-10-24T20:53:30.863Z,97493.47
2022-10-24T20:56:32.913Z,97486.63
2022-10-24T20:59:35.099Z,97495.38
2022-10-24T21:02:37.153Z,97505.75
2022-10-24T21:05:39.210Z,97510.78
2022-10-24T21:08:41.255Z,97512.09
2022-10-24T21:11:43.417Z,97518.72
2022-10-24T21:14:45.470Z,97515.56
2022-10-24T21:17:47.973Z,97514.50
2022-10-24T21:20:50.195Z,97522.19
2022-10-24T21:24:03.852Z,97518.22
2022-10-24T21:27:08.622Z,97528.28
2022-10-24T21:30:14.581Z,97535.16
2022-10-24T21:33:17.010Z,97537.81
2022-10-24T21:36:23.013Z,97538.09
2022-10-24T21:39:25.382Z,97540.47
2022-10-24T21:42:29.879Z,97543.66
2022-10-24T21:45:36.977Z,97547.38
2022-10-24T21:48:40.055Z,97549.22
2022-10-24T21:51:43.838Z,97550.22
2022-10-24T21:54:45.932Z,97545.97
2022-10-24T21:57:48.015Z,97554.53
2022-10-24T22:00:50.183Z,97558.00
2022-10-24T22:03:53.306Z,97554.28
2022-10-24T22:06:55.422Z,97552.69
2022-10-24T22:09:57.533Z,97565.44
2022-10-24T22:12:59.648Z,97565.41
2022-10-24T22:16:02.171Z,97570.72
2022-10-24T22:19:05.009Z,97568.06
2022-10-24T22:22:07.155Z,97570.47
2022-10-24T22:25:09.462Z,97570.19
2022-10-24T22:28:11.794Z,97583.47
2022-10-24T22:31:14.842Z,97589.53
2022-10-24T22:34:20.045Z,97590.59
2022-10-24T22:37:27.998Z,97597.22
2022-10-24T22:40:31.371Z,97595.63
2022-10-24T22:43:33.880Z,97589.50
2022-10-24T22:47:00.296Z,97598.78
2022-10-24T22:50:36.506Z,97597.97
2022-10-24T22:53:38.863Z,97606.47
2022-10-24T22:56:41.814Z,97604.84
2022-10-24T22:59:44.291Z,97613.09
2022-10-24T23:02:46.997Z,97617.06
2022-10-24T23:05:56.908Z,97624.25
2022-10-24T23:08:58.954Z,97631.47
2022-10-24T23:12:01.322Z,97643.63
2022-10-24T23:15:03.869Z,97648.66
2022-10-24T23:18:06.399Z,97648.91
2022-10-24T23:21:19.885Z,97649.97
2022-10-24T23:24:22.135Z,97655.22
2022-10-24T23:27:36.210Z,97663.94
2022-10-24T23:30:38.684Z,97666.03
2022-10-24T23:33:41.046Z,97672.41
2022-10-24T23:36:44.234Z,97672.09
2022-10-24T23:39:46.667Z,97681.09
2022-10-24T23:42:49.855Z,97681.13
2022-10-24T23:45:59.993Z,97685.16
2022-10-24T23:49:05.043Z,97682.50
2022-10-24T23:52:24.471Z,97684.03
2022-10-24T23:55:26.862Z,97685.97
2022-10-24T23:58:28.897Z,97685.91
